TimeEDT,TemperatureF,Dew PointF,Humidity,Sea Level PressureIn,VisibilityMPH,Wind Direction,Wind SpeedMPH,Gust SpeedMPH,PrecipitationIn,Events,Conditions,WindDirDegrees,DateUTC
12:15 AM,70.2,69.6,98,30.01,7.0,Calm,Calm,-,N/A,,Clear,0,2013-09-04 04:15:00
12:35 AM,70.0,69.4,98,30.01,7.0,Calm,Calm,-,N/A,,Clear,0,2013-09-04 04:35:00
12:55 AM,70.7,67.5,89,30.02,10.0,Calm,Calm,-,N/A,,Clear,0,2013-09-04 04:55:00
1:15 AM,69.8,67.3,92,30.02,10.0,Calm,Calm,-,N/A,,Clear,0,2013-09-04 05:15:00
1:35 AM,68.4,67.5,97,30.02,10.0,Calm,Calm,-,N/A,,Clear,0,2013-09-04 05:35:00
1:55 AM,68.0,67.1,97,30.02,7.0,Calm,Calm,-,N/A,,Clear,0,2013-09-04 05:55:00
2:15 AM,67.5,66.6,97,30.02,7.0,Calm,Calm,-,N/A,,Clear,0,2013-09-04 06:15:00
2:35 AM,67.1,66.4,98,30.02,7.0,Calm,Calm,-,N/A,,Clear,0,2013-09-04 06:35:00
2:55 AM,66.7,66.2,98,30.02,7.0,Calm,Calm,-,N/A,,Clear,0,2013-09-04 06:55:00
3:15 AM,66.4,65.7,98,30.03,7.0,Calm,Calm,-,N/A,,Clear,0,2013-09-04 07:15:00
3:35 AM,65.8,65.3,98,30.03,7.0,Calm,Calm,-,N/A,,Clear,0,2013-09-04 07:35:00
3:55 AM,65.5,65.3,99,30.03,7.0,Calm,Calm,-,N/A,,Clear,0,2013-09-04 07:55:00
4:15 AM,65.7,64.8,97,30.03,10.0,Calm,Calm,-,N/A,,Clear,0,2013-09-04 08:15:00
4:35 AM,65.1,64.6,98,30.03,7.0,Calm,Calm,-,N/A,,Clear,0,2013-09-04 08:35:00
4:55 AM,65.1,64.0,96,30.04,10.0,Calm,Calm,-,N/A,,Clear,0,2013-09-04 08:55:00
5:15 AM,65.3,63.0,92,30.04,10.0,Calm,Calm,-,N/A,,Clear,0,2013-09-04 09:15:00
5:35 AM,64.4,63.5,97,30.05,10.0,Calm,Calm,-,N/A,,Clear,0,2013-09-04 09:35:00
5:55 AM,64.6,63.0,94,30.06,10.0,Calm,Calm,-,N/A,,Clear,0,2013-09-04 09:55:00
6:15 AM,64.2,62.6,94,30.07,10.0,Calm,Calm,-,N/A,,Clear,0,2013-09-04 10:15:00
6:35 AM,63.1,62.8,99,30.07,7.0,Calm,Calm,-,N/A,,Clear,0,2013-09-04 10:35:00
6:55 AM,63.0,62.6,99,30.08,7.0,Calm,Calm,-,N/A,,Clear,0,2013-09-04 10:55:00
7:15 AM,63.1,62.2,97,30.09,7.0,Calm,Calm,-,N/A,,Clear,0,2013-09-04 11:15:00
7:35 AM,63.0,62.6,99,30.09,7.0,Calm,Calm,-,N/A,,Clear,0,2013-09-04 11:35:00
7:55 AM,64.6,62.6,93,30.10,10.0,Calm,Calm,-,N/A,,Clear,0,2013-09-04 11:55:00
8:15 AM,66.2,62.1,86,30.10,10.0,Calm,Calm,-,N/A,,Clear,0,2013-09-04 12:15:00
8:35 AM,67.1,62.2,84,30.10,10.0,NNE,3.5,-,N/A,,Clear,20,2013-09-04 12:35:00
8:55 AM,68.7,62.4,80,30.11,10.0,North,6.9,-,N/A,,Clear,10,2013-09-04 12:55:00
9:15 AM,69.1,63.0,81,30.11,10.0,North,9.2,-,N/A,,Clear,360,2013-09-04 13:15:00
9:35 AM,69.8,63.7,81,30.12,10.0,NNE,5.8,-,N/A,,Clear,20,2013-09-04 13:35:00
9:55 AM,70.9,64.0,79,30.12,10.0,North,5.8,-,N/A,,Clear,360,2013-09-04 13:55:00
10:15 AM,71.8,64.4,77,30.12,10.0,NNE,3.5,-,N/A,,Clear,20,2013-09-04 14:15:00
10:35 AM,72.9,64.9,76,30.13,10.0,NNW,4.6,-,N/A,,Clear,340,2013-09-04 14:35:00
10:55 AM,74.3,65.3,73,30.13,10.0,North,4.6,-,N/A,,Clear,350,2013-09-04 14:55:00
11:15 AM,75.2,66.4,74,30.13,10.0,NNE,4.6,-,N/A,,Clear,20,2013-09-04 15:15:00
11:35 AM,76.1,66.9,73,30.13,10.0,Calm,Calm,-,N/A,,Clear,0,2013-09-04 15:35:00
11:55 AM,77.4,66.6,69,30.12,10.0,NNE,4.6,-,N/A,,Clear,20,2013-09-04 15:55:00
12:15 PM,77.9,66.9,69,30.13,10.0,Calm,Calm,-,N/A,,Clear,0,2013-09-04 16:15:00
12:35 PM,78.3,65.5,65,30.13,10.0,Calm,Calm,-,N/A,,Clear,0,2013-09-04 16:35:00
12:55 PM,79.3,66.4,64,30.12,10.0,NE,3.5,-,N/A,,Clear,50,2013-09-04 16:55:00
1:15 PM,79.3,65.5,62,30.12,10.0,NW,4.6,-,N/A,,Clear,320,2013-09-04 17:15:00
1:35 PM,79.7,65.1,61,30.12,10.0,Calm,Calm,-,N/A,,Clear,0,2013-09-04 17:35:00
1:55 PM,80.4,65.8,61,30.12,10.0,West,3.5,-,N/A,,Clear,280,2013-09-04 17:55:00
2:15 PM,80.6,65.8,61,30.12,10.0,NNW,3.5,-,N/A,,Clear,340,2013-09-04 18:15:00
2:35 PM,81.1,64.9,58,30.11,10.0,Calm,Calm,-,N/A,,Clear,0,2013-09-04 18:35:00
2:55 PM,81.0,63.9,56,30.11,10.0,North,3.5,-,N/A,,Clear,350,2013-09-04 18:55:00
3:15 PM,81.5,64.0,55,30.11,10.0,Calm,Calm,-,N/A,,Clear,0,2013-09-04 19:15:00
3:35 PM,81.9,64.2,55,30.10,10.0,West,4.6,-,N/A,,Clear,260,2013-09-04 19:35:00
3:55 PM,81.7,65.3,57,30.09,10.0,Calm,Calm,-,N/A,,Clear,0,2013-09-04 19:55:00
4:15 PM,82.0,64.9,56,30.09,10.0,Calm,Calm,-,N/A,,Clear,0,2013-09-04 20:15:00
4:35 PM,82.4,64.9,55,30.09,10.0,Calm,Calm,-,N/A,,Clear,0,2013-09-04 20:35:00
4:55 PM,82.9,64.8,54,30.09,10.0,SSW,3.5,-,N/A,,Clear,210,2013-09-04 20:55:00
5:15 PM,82.6,66.0,57,30.09,10.0,Calm,Calm,-,N/A,,Clear,0,2013-09-04 21:15:00
5:35 PM,82.4,65.5,56,30.08,10.0,Calm,Calm,-,N/A,,Clear,0,2013-09-04 21:35:00
5:55 PM,82.0,65.8,58,30.08,10.0,Calm,Calm,-,N/A,,Clear,0,2013-09-04 21:55:00
6:15 PM,81.9,66.4,59,30.08,10.0,Calm,Calm,-,N/A,,Clear,0,2013-09-04 22:15:00
6:35 PM,81.5,68.2,64,30.08,10.0,Calm,Calm,-,N/A,,Clear,0,2013-09-04 22:35:00
6:55 PM,79.0,70.2,74,30.08,10.0,Calm,Calm,-,N/A,,Clear,0,2013-09-04 22:55:00
7:15 PM,77.0,70.5,80,30.08,10.0,Calm,Calm,-,N/A,,Clear,0,2013-09-04 23:15:00
7:35 PM,75.9,70.9,84,30.09,10.0,Calm,Calm,-,N/A,,Clear,0,2013-09-04 23:35:00
7:55 PM,74.3,70.7,88,30.09,10.0,Calm,Calm,-,N/A,,Clear,0,2013-09-04 23:55:00
8:15 PM,72.7,70.2,92,30.09,10.0,Calm,Calm,-,N/A,,Clear,0,2013-09-05 00:15:00
8:35 PM,72.0,69.8,93,30.10,10.0,Calm,Calm,-,N/A,,Clear,0,2013-09-05 00:35:00
8:55 PM,71.6,70.0,95,30.11,10.0,Calm,Calm,-,N/A,,Clear,0,2013-09-05 00:55:00
9:15 PM,71.1,69.4,95,30.12,10.0,Calm,Calm,-,N/A,,Clear,0,2013-09-05 01:15:00
9:35 PM,70.7,69.1,95,30.12,10.0,Calm,Calm,-,N/A,,Clear,0,2013-09-05 01:35:00
9:55 PM,70.7,67.8,91,30.12,10.0,Calm,Calm,-,N/A,,Clear,0,2013-09-05 01:55:00
10:15 PM,68.9,67.8,96,30.12,10.0,Calm,Calm,-,N/A,,Clear,0,2013-09-05 02:15:00
10:35 PM,68.4,67.1,96,30.13,7.0,Calm,Calm,-,N/A,,Clear,0,2013-09-05 02:35:00
10:55 PM,68.0,67.1,97,30.14,7.0,Calm,Calm,-,N/A,,Clear,0,2013-09-05 02:55:00
11:15 PM,67.5,66.6,97,30.14,7.0,Calm,Calm,-,N/A,,Clear,0,2013-09-05 03:15:00
11:35 PM,67.1,66.6,98,30.14,7.0,Calm,Calm,-,N/A,,Clear,0,2013-09-05 03:35:00
11:55 PM,66.6,66.2,99,30.14,7.0,Calm,Calm,-,N/A,,Clear,0,2013-09-05 03:55:00